createdAt,value
2019-05-02T19:45:21.837Z,97.61
2019-05-02T19:46:51.931Z,98.38
2019-05-02T19:47:54.324Z,98.67
2019-05-02T19:49:47.341Z,99.48
2019-05-02T19:50:44.233Z,99.19
2019-05-02T19:52:40.502Z,99.99
2019-05-02T19:53:38.457Z,99.96
2019-05-02T19:55:33.960Z,99.99
2019-05-02T19:56:45.365Z,99.99
2019-05-02T19:58:27.252Z,99.99
2019-05-02T19:59:29.597Z,99.99
2019-05-02T20:01:22.931Z,99.87
2019-05-02T20:02:22.299Z,99.96
2019-05-02T20:04:16.448Z,99.99
2019-05-02T20:05:16.407Z,99.99
2019-05-02T20:07:12.248Z,99.99
2019-05-02T20:08:14.784Z,99.99
2019-05-02T20:09:11.399Z,99.99
2019-05-02T20:10:12.198Z,99.99
2019-05-02T20:11:12.440Z,99.99
2019-05-02T20:12:15.472Z,99.99
2019-05-02T20:13:12.010Z,99.99
2019-05-02T20:14:12.401Z,99.99
2019-05-02T20:15:12.097Z,99.99
2019-05-02T20:16:11.855Z,99.99
2019-05-02T20:17:14.831Z,99.99
2019-05-02T20:18:11.971Z,99.99
2019-05-02T20:19:12.289Z,99.99
2019-05-02T20:20:12.297Z,99.99
2019-05-02T20:21:13.632Z,99.99
2019-05-02T20:22:11.830Z,99.99
2019-05-02T20:23:17.865Z,99.99
2019-05-02T20:24:17.485Z,99.99
2019-05-02T20:25:12.392Z,99.99
2019-05-02T20:26:15.398Z,99.99
2019-05-02T20:27:12.073Z,99.99
2019-05-02T20:28:10.256Z,99.99
2019-05-02T20:29:10.254Z,99.99
2019-05-02T20:30:12.024Z,99.99
2019-05-02T20:31:12.174Z,99.99
2019-05-02T20:32:10.242Z,99.99
2019-05-02T20:33:10.236Z,99.99
2019-05-02T20:34:11.801Z,99.99
2019-05-02T20:35:11.947Z,99.99
2019-05-02T20:36:12.183Z,99.99
2019-05-02T20:37:12.602Z,99.99
2019-05-02T20:38:11.783Z,99.99
2019-05-02T20:39:11.876Z,99.99
2019-05-02T20:40:11.935Z,99.99
2019-05-02T20:41:12.532Z,99.99
2019-05-02T20:42:11.988Z,99.99
2019-05-02T20:43:12.003Z,99.99
2019-05-02T20:44:12.017Z,99.99
2019-05-02T20:45:11.654Z,99.99
2019-05-02T20:46:11.998Z,99.99
2019-05-02T20:47:12.094Z,99.99
2019-05-02T20:48:11.922Z,99.99
2019-05-02T20:49:10.206Z,99.99
2019-05-02T20:50:11.982Z,99.99
2019-05-02T20:51:11.989Z,99.99
2019-05-02T20:52:11.901Z,99.99
2019-05-02T20:53:12.766Z,99.99
2019-05-02T20:54:12.374Z,99.99
2019-05-02T20:55:12.144Z,99.99
2019-05-02T20:56:12.172Z,99.99
2019-05-02T20:57:12.008Z,99.99
2019-05-02T20:58:10.250Z,99.99
2019-05-02T20:59:12.748Z,99.99
2019-05-02T21:00:12.141Z,99.99
2019-05-02T21:01:12.182Z,99.99
2019-05-02T21:02:12.254Z,99.99
2019-05-02T21:03:11.971Z,99.99
2019-05-02T21:04:12.023Z,99.99
2019-05-02T21:05:11.846Z,99.99
2019-05-02T21:06:12.245Z,99.99
2019-05-02T21:07:10.223Z,99.99
2019-05-02T21:08:10.252Z,99.99
2019-05-02T21:09:10.329Z,99.99
2019-05-02T21:10:10.199Z,99.99
2019-05-02T21:11:12.319Z,99.99
2019-05-02T21:12:12.614Z,99.99
2019-05-02T21:13:10.233Z,99.99
2019-05-02T21:14:12.295Z,99.99
2019-05-02T21:15:12.332Z,99.99
2019-05-02T21:16:12.082Z,99.99
2019-05-02T21:17:10.245Z,99.99
2019-05-02T21:18:11.700Z,99.99
2019-05-02T21:19:12.233Z,99.99
2019-05-02T21:20:12.328Z,99.99
2019-05-02T21:21:10.110Z,99.99
2019-05-02T21:22:10.433Z,99.99
2019-05-02T21:23:10.980Z,99.99
2019-05-02T21:24:10.075Z,99.99
2019-05-02T21:25:10.074Z,99.99
2019-05-02T21:26:10.067Z,99.99
2019-05-02T21:27:10.080Z,99.99
2019-05-02T21:28:11.831Z,99.99
2019-05-02T21:29:11.987Z,99.99
2019-05-02T21:30:12.175Z,99.99
2019-05-02T21:31:11.981Z,99.99
2019-05-02T21:32:12.034Z,99.99
2019-05-02T21:33:11.769Z,99.99
2019-05-02T21:34:11.717Z,99.99
2019-05-02T21:35:11.926Z,99.99
2019-05-02T21:36:12.030Z,99.99
2019-05-02T21:37:10.033Z,99.99
2019-05-02T21:38:11.907Z,99.99
2019-05-02T21:39:11.830Z,99.99
2019-05-02T21:40:11.819Z,99.99
2019-05-02T21:41:10.218Z,99.99
2019-05-02T21:42:10.390Z,99.99
2019-05-02T21:43:12.864Z,99.99
2019-05-02T21:44:10.271Z,99.99
2019-05-02T21:45:10.224Z,99.99
2019-05-02T21:46:10.917Z,99.99
2019-05-02T21:47:10.322Z,99.99
2019-05-02T21:48:10.163Z,99.99
2019-05-02T21:49:11.944Z,99.99
2019-05-02T21:50:10.062Z,99.99
2019-05-02T21:51:12.011Z,99.99
2019-05-02T21:52:11.761Z,99.99
2019-05-02T21:53:10.235Z,99.99
2019-05-02T21:54:12.075Z,99.99
2019-05-02T21:55:09.962Z,99.99
2019-05-02T21:56:09.966Z,99.99
2019-05-02T21:57:12.023Z,99.99
2019-05-02T21:58:12.002Z,99.99
2019-05-02T21:59:11.902Z,99.99
2019-05-02T22:00:11.669Z,99.99
2019-05-02T22:01:10.125Z,99.99
2019-05-02T22:02:11.863Z,99.99
2019-05-02T22:03:09.930Z,99.99
2019-05-02T22:04:09.943Z,99.99
2019-05-02T22:05:10.066Z,99.99
2019-05-02T22:06:12.261Z,99.99
2019-05-02T22:07:12.104Z,99.99
2019-05-02T22:08:12.149Z,99.99
2019-05-02T22:09:12.095Z,99.99
2019-05-02T22:10:12.013Z,99.95
2019-05-02T22:11:12.159Z,99.99
2019-05-02T22:12:11.833Z,99.99
2019-05-02T22:13:11.375Z,99.99
2019-05-02T22:14:13.412Z,99.85
2019-05-02T22:15:09.930Z,99.99
2019-05-02T22:16:10.059Z,99.99
2019-05-02T22:17:12.689Z,99.99
2019-05-02T22:18:09.898Z,99.99
2019-05-02T22:19:11.381Z,99.99
2019-05-02T22:20:10.099Z,99.99
2019-05-02T22:21:09.932Z,99.76
2019-05-02T22:22:09.873Z,99.99
2019-05-02T22:23:11.714Z,99.90
2019-05-02T22:24:13.693Z,99.85
2019-05-02T22:25:11.536Z,99.81
2019-05-02T22:26:09.837Z,99.48
2019-05-02T22:27:09.839Z,99.95
2019-05-02T22:28:09.993Z,99.48
2019-05-02T22:29:09.831Z,99.38
2019-05-02T22:30:09.824Z,99.28
2019-05-02T22:31:12.543Z,99.48
2019-05-02T22:32:12.222Z,99.19
2019-05-02T22:33:11.775Z,99.57
2019-05-02T22:34:09.978Z,99.38
2019-05-02T22:35:12.247Z,98.99
2019-05-02T22:36:10.040Z,98.99
2019-05-02T22:37:09.795Z,98.52
2019-05-02T22:38:11.725Z,98.80
2019-05-02T22:39:09.965Z,99.09
2019-05-02T22:40:10.138Z,98.99
2019-05-02T22:41:10.101Z,99.19
2019-05-02T22:42:12.691Z,99.19
2019-05-02T22:43:09.772Z,98.71
2019-05-02T22:44:09.770Z,98.71
2019-05-02T22:45:10.006Z,98.61
2019-05-02T22:46:09.782Z,98.61
2019-05-02T22:47:11.778Z,98.13
2019-05-02T22:48:14.096Z,98.33
2019-05-02T22:49:11.508Z,97.94
2019-05-02T22:50:09.749Z,98.71
2019-05-02T22:51:09.785Z,98.13
2019-05-02T22:52:10.063Z,98.33
2019-05-02T22:53:09.794Z,98.13
2019-05-02T22:54:23.327Z,98.23
2019-05-02T22:55:09.742Z,98.23
2019-05-02T22:56:11.825Z,98.52
2019-05-02T22:57:11.557Z,98.52
2019-05-02T22:58:09.837Z,98.04
2019-05-02T22:59:09.943Z,98.04
2019-05-02T23:00:09.819Z,97.89
2019-05-02T23:01:10.978Z,97.99
2019-05-02T23:02:12.771Z,97.52
2019-05-02T23:03:12.432Z,97.42
2019-05-02T23:04:10.028Z,96.94
2019-05-02T23:05:09.892Z,97.32
2019-05-02T23:06:12.529Z,97.42
2019-05-02T23:07:12.674Z,98.04
2019-05-02T23:08:12.528Z,97.28
2019-05-02T23:09:09.924Z,97.80
2019-05-02T23:10:09.673Z,97.66
2019-05-02T23:11:09.995Z,97.99
2019-05-02T23:12:09.922Z,97.66
2019-05-02T23:13:09.978Z,97.99
2019-05-02T23:14:09.644Z,98.13
2019-05-02T23:15:09.685Z,98.57
2019-05-02T23:16:10.723Z,97.94
2019-05-02T23:17:12.788Z,98.37
2019-05-02T23:18:09.623Z,98.04
2019-05-02T23:19:12.272Z,98.08
2019-05-02T23:20:09.619Z,97.80
2019-05-02T23:21:09.800Z,97.42
2019-05-02T23:22:09.927Z,97.52
2019-05-02T23:23:12.403Z,96.94
2019-05-02T23:24:09.599Z,96.75
2019-05-02T23:25:11.664Z,96.75
2019-05-02T23:26:09.945Z,96.56
2019-05-02T23:27:11.674Z,96.66
2019-05-02T23:28:09.593Z,96.66
2019-05-02T23:29:09.815Z,96.66
2019-05-02T23:30:11.542Z,96.56
2019-05-02T23:31:11.444Z,96.46
2019-05-02T23:32:09.568Z,95.70
2019-05-02T23:33:09.632Z,96.46
2019-05-02T23:34:09.625Z,96.08
2019-05-02T23:35:09.549Z,95.79
2019-05-02T23:36:09.548Z,95.41
2019-05-02T23:37:11.818Z,95.41
2019-05-02T23:38:09.594Z,95.98
2019-05-02T23:39:09.766Z,95.61
2019-05-02T23:40:12.362Z,95.41
2019-05-02T23:41:09.532Z,95.32
2019-05-02T23:42:09.825Z,95.32
2019-05-02T23:43:09.648Z,95.41
2019-05-02T23:44:09.508Z,95.51
2019-05-02T23:45:09.504Z,95.79
2019-05-02T23:46:09.499Z,95.41
2019-05-02T23:47:09.515Z,95.51
2019-05-02T23:48:09.521Z,95.61
2019-05-02T23:49:09.491Z,95.79
2019-05-02T23:50:09.512Z,95.22
2019-05-02T23:51:09.481Z,95.32
2019-05-02T23:52:09.475Z,95.89
2019-05-02T23:53:09.490Z,95.51
2019-05-02T23:54:09.463Z,95.98
2019-05-02T23:55:09.461Z,96.56
2019-05-02T23:56:09.478Z,96.08
2019-05-02T23:57:09.450Z,96.75
2019-05-02T23:58:09.449Z,96.56
2019-05-02T23:59:09.500Z,96.17
